createdAt,value
2023-05-30T00:00:19.907Z,9.10
2023-05-30T00:02:46.853Z,9.13
2023-05-30T00:05:14.433Z,9.04
2023-05-30T00:07:41.182Z,9.06
2023-05-30T00:10:08.260Z,8.98
2023-05-30T00:12:36.488Z,9.01
2023-05-30T00:15:06.209Z,8.88
2023-05-30T00:17:33.983Z,8.93
2023-05-30T00:20:00.933Z,8.83
2023-05-30T00:22:27.718Z,8.85
2023-05-30T00:24:54.514Z,8.79
2023-05-30T00:27:21.308Z,8.70
2023-05-30T00:29:48.036Z,8.68
2023-05-30T00:32:14.823Z,8.64
2023-05-30T00:34:41.695Z,8.65
2023-05-30T00:37:10.205Z,8.61
2023-05-30T00:39:37.113Z,8.56
2023-05-30T00:42:05.278Z,8.54
2023-05-30T00:44:32.098Z,8.53
2023-05-30T00:46:59.556Z,8.51
2023-05-30T00:49:28.085Z,8.46
2023-05-30T00:51:55.567Z,8.49
2023-05-30T00:54:23.653Z,8.41
2023-05-30T00:56:51.875Z,8.35
2023-05-30T00:59:19.037Z,8.41
2023-05-30T01:01:46.657Z,8.43
2023-05-30T01:04:13.636Z,8.36
2023-05-30T01:06:41.016Z,8.32
2023-05-30T01:09:08.077Z,8.26
2023-05-30T01:11:48.540Z,8.24
2023-05-30T01:14:25.967Z,8.29
2023-05-30T01:17:02.074Z,8.26
2023-05-30T01:19:48.321Z,8.22
2023-05-30T01:22:21.679Z,8.25
2023-05-30T01:25:02.849Z,8.23
2023-05-30T01:27:44.818Z,8.14
2023-05-30T01:30:12.039Z,8.08
2023-05-30T01:32:39.187Z,8.06
2023-05-30T01:35:06.020Z,8.09
2023-05-30T01:37:32.798Z,8.11
2023-05-30T01:39:59.560Z,8.06
2023-05-30T01:42:32.349Z,8.03
2023-05-30T01:45:17.193Z,7.96
2023-05-30T01:48:13.201Z,7.93
2023-05-30T01:50:49.272Z,7.90
2023-05-30T01:53:23.540Z,7.91
2023-05-30T01:55:54.722Z,7.94
2023-05-30T01:58:24.287Z,7.93
2023-05-30T02:00:54.212Z,7.82
2023-05-30T02:03:23.692Z,7.85
2023-05-30T02:05:50.799Z,7.83
2023-05-30T02:08:17.602Z,7.84
2023-05-30T02:10:44.402Z,7.83
2023-05-30T02:13:11.189Z,7.77
2023-05-30T02:15:37.918Z,7.79
2023-05-30T02:18:07.071Z,7.84
2023-05-30T02:20:34.019Z,7.73
2023-05-30T02:23:00.930Z,7.75
2023-05-30T02:25:27.716Z,7.75
2023-05-30T02:27:54.479Z,7.73
2023-05-30T02:30:21.398Z,7.74
2023-05-30T02:32:48.190Z,7.70
2023-05-30T02:35:14.935Z,7.69
2023-05-30T02:37:41.658Z,7.67
2023-05-30T02:40:12.201Z,7.68
2023-05-30T02:42:39.020Z,7.68
2023-05-30T02:45:06.234Z,7.66
2023-05-30T02:47:33.246Z,7.63
2023-05-30T02:49:59.999Z,7.69
2023-05-30T02:52:26.781Z,7.71
2023-05-30T02:54:53.592Z,7.70
2023-05-30T02:57:23.472Z,7.63
2023-05-30T02:59:50.236Z,7.60
2023-05-30T03:02:16.990Z,7.61
2023-05-30T03:04:47.435Z,7.63
2023-05-30T03:07:18.744Z,7.65
2023-05-30T03:09:47.021Z,7.68
2023-05-30T03:12:14.004Z,7.78
2023-05-30T03:14:41.040Z,7.80
2023-05-30T03:17:07.881Z,7.89
2023-05-30T03:19:34.698Z,8.00
2023-05-30T03:22:01.505Z,8.02
2023-05-30T03:24:30.427Z,8.15
2023-05-30T03:26:57.196Z,8.15
2023-05-30T03:29:23.969Z,8.20
2023-05-30T03:31:50.995Z,8.20
2023-05-30T03:34:17.876Z,8.26
2023-05-30T03:36:44.606Z,8.29
2023-05-30T03:39:11.497Z,8.30
2023-05-30T03:41:38.252Z,8.23
2023-05-30T03:44:05.213Z,8.30
2023-05-30T03:46:33.230Z,8.34
2023-05-30T03:49:00.161Z,8.37
2023-05-30T03:51:27.788Z,8.39
2023-05-30T03:53:54.587Z,8.41
2023-05-30T03:56:21.818Z,8.37
2023-05-30T03:58:48.616Z,8.46
2023-05-30T04:01:15.667Z,8.51
2023-05-30T04:03:44.252Z,8.51
2023-05-30T04:06:11.784Z,8.45
2023-05-30T04:08:39.085Z,8.49
2023-05-30T04:11:05.948Z,8.42
2023-05-30T04:13:32.704Z,8.40
2023-05-30T04:16:01.696Z,8.41
2023-05-30T04:18:28.562Z,8.50
2023-05-30T04:20:55.567Z,8.51
2023-05-30T04:23:23.751Z,8.44
2023-05-30T04:25:50.899Z,8.42
2023-05-30T04:28:21.102Z,8.46
2023-05-30T04:30:51.087Z,8.52
2023-05-30T04:33:18.255Z,8.59
2023-05-30T04:35:45.879Z,8.62
2023-05-30T04:38:21.157Z,8.62
2023-05-30T04:40:54.184Z,8.64
2023-05-30T04:43:21.263Z,8.66
2023-05-30T04:45:59.855Z,8.74
2023-05-30T04:48:36.228Z,8.69
2023-05-30T04:51:03.956Z,8.70
2023-05-30T04:53:30.923Z,8.76
2023-05-30T04:55:58.063Z,8.81
2023-05-30T04:58:24.782Z,8.81
2023-05-30T05:00:51.536Z,8.85
2023-05-30T05:03:18.450Z,8.85
2023-05-30T05:05:45.235Z,8.95
2023-05-30T05:08:12.016Z,8.98
2023-05-30T05:10:39.221Z,8.93
2023-05-30T05:13:05.962Z,9.05
2023-05-30T05:15:32.799Z,9.03
2023-05-30T05:17:59.952Z,9.07
2023-05-30T05:20:28.188Z,9.15
2023-05-30T05:22:56.464Z,9.06
2023-05-30T05:25:23.683Z,9.08
2023-05-30T05:27:50.670Z,9.09
2023-05-30T05:30:17.443Z,9.06
2023-05-30T05:32:44.302Z,9.08
2023-05-30T05:35:11.232Z,9.08
2023-05-30T05:37:38.172Z,9.12
2023-05-30T05:40:06.813Z,9.18
2023-05-30T05:42:34.642Z,9.24
2023-05-30T05:45:02.425Z,9.28
2023-05-30T05:47:29.253Z,9.17
2023-05-30T05:49:56.036Z,9.26
2023-05-30T05:52:22.882Z,9.29
2023-05-30T05:54:49.641Z,9.29
2023-05-30T05:57:16.564Z,9.33
2023-05-30T05:59:43.567Z,9.36
2023-05-30T06:02:10.400Z,9.50
2023-05-30T06:04:37.857Z,9.55
2023-05-30T06:07:05.215Z,9.63
2023-05-30T06:09:32.922Z,9.64
2023-05-30T06:11:59.698Z,9.59
2023-05-30T06:14:26.700Z,9.49
2023-05-30T06:16:53.769Z,9.49
2023-05-30T06:19:21.076Z,9.60
2023-05-30T06:21:48.083Z,9.71
2023-05-30T06:24:14.831Z,9.82
2023-05-30T06:26:41.646Z,9.81
2023-05-30T06:29:08.386Z,9.84
2023-05-30T06:31:35.172Z,9.82
2023-05-30T06:34:01.930Z,9.89
2023-05-30T06:36:28.650Z,9.89
2023-05-30T06:38:55.431Z,9.94
2023-05-30T06:41:23.716Z,10.02
2023-05-30T06:43:50.584Z,10.13
2023-05-30T06:46:17.728Z,10.06
2023-05-30T06:48:44.483Z,10.15
2023-05-30T06:51:11.698Z,10.23
2023-05-30T06:53:38.446Z,10.26
2023-05-30T06:56:05.418Z,10.39
2023-05-30T06:58:32.184Z,10.45
2023-05-30T07:00:59.176Z,10.28
2023-05-30T07:03:26.488Z,10.31
2023-05-30T07:05:54.111Z,10.27
2023-05-30T07:08:20.954Z,10.30
2023-05-30T07:10:47.703Z,10.27
2023-05-30T07:13:14.441Z,10.33
2023-05-30T07:15:41.195Z,10.36
2023-05-30T07:18:07.922Z,10.46
2023-05-30T07:20:34.742Z,10.68
2023-05-30T07:23:01.618Z,10.63
2023-05-30T07:25:28.353Z,10.60
2023-05-30T07:27:55.152Z,10.81
2023-05-30T07:30:22.558Z,10.91
2023-05-30T07:32:50.953Z,10.87
2023-05-30T07:35:17.854Z,10.84
2023-05-30T07:37:44.592Z,10.93
2023-05-30T07:40:11.487Z,10.87
2023-05-30T07:42:38.916Z,11.01
2023-05-30T07:45:06.558Z,11.07
2023-05-30T07:47:33.395Z,10.89
2023-05-30T07:50:00.256Z,11.05
2023-05-30T07:52:27.136Z,11.21
2023-05-30T07:54:54.011Z,11.24
2023-05-30T07:57:20.837Z,11.42
2023-05-30T07:59:49.814Z,11.60
2023-05-30T08:02:17.179Z,11.51
2023-05-30T08:04:44.255Z,11.43
2023-05-30T08:07:11.142Z,11.53
2023-05-30T08:09:38.011Z,11.56
2023-05-30T08:12:06.396Z,11.60
2023-05-30T08:14:33.780Z,11.62
2023-05-30T08:17:01.136Z,11.64
2023-05-30T08:19:28.296Z,11.64
2023-05-30T08:21:55.255Z,11.52
2023-05-30T08:24:22.127Z,11.67
2023-05-30T08:26:49.931Z,11.67
2023-05-30T08:29:16.863Z,11.83
2023-05-30T08:31:43.867Z,11.79
2023-05-30T08:34:10.830Z,11.75
2023-05-30T08:36:37.965Z,11.63
2023-05-30T08:41:35.512Z,11.92
2023-05-30T08:44:02.547Z,11.95
2023-05-30T08:46:30.153Z,12.01
2023-05-30T08:48:57.467Z,11.89
2023-05-30T08:51:25.692Z,12.03
2023-05-30T08:53:57.440Z,12.18
2023-05-30T08:56:30.513Z,12.22
2023-05-30T08:59:01.371Z,11.89
2023-05-30T09:01:29.712Z,12.09
2023-05-30T09:03:57.500Z,12.25
2023-05-30T09:06:27.027Z,12.49
2023-05-30T09:08:54.482Z,12.30
2023-05-30T09:11:24.064Z,12.38
2023-05-30T09:13:51.065Z,12.52
2023-05-30T09:16:17.892Z,12.37
2023-05-30T09:18:44.699Z,12.57
2023-05-30T09:21:12.723Z,12.82
2023-05-30T09:23:42.347Z,12.96
2023-05-30T09:26:12.774Z,12.81
2023-05-30T09:28:39.496Z,12.95
2023-05-30T09:31:08.072Z,12.93
2023-05-30T09:33:45.909Z,12.85
2023-05-30T09:36:20.097Z,13.03
2023-05-30T09:39:06.546Z,13.03
2023-05-30T09:41:34.146Z,13.11
2023-05-30T09:44:05.682Z,13.40
2023-05-30T09:46:32.659Z,13.27
2023-05-30T09:49:00.081Z,12.97
2023-05-30T09:51:27.499Z,13.16
2023-05-30T09:54:05.599Z,13.28
2023-05-30T09:56:40.331Z,13.13
2023-05-30T09:59:12.357Z,13.17
2023-05-30T10:01:44.151Z,13.12
2023-05-30T10:04:19.325Z,13.35
2023-05-30T10:06:47.919Z,13.58
2023-05-30T10:09:14.964Z,13.81
2023-05-30T10:11:45.439Z,13.61
2023-05-30T10:14:13.303Z,13.66
2023-05-30T10:16:47.352Z,13.56
2023-05-30T10:19:17.989Z,13.32
2023-05-30T10:21:46.230Z,13.35
2023-05-30T10:24:16.768Z,13.59
2023-05-30T10:26:50.216Z,13.59
2023-05-30T10:29:20.828Z,13.68
2023-05-30T10:31:48.979Z,13.88
2023-05-30T10:34:18.906Z,13.95
2023-05-30T10:36:46.300Z,13.93
2023-05-30T10:39:57.570Z,13.92
2023-05-30T10:42:38.291Z,13.95
2023-05-30T10:45:34.181Z,14.13
2023-05-30T10:48:21.130Z,14.30
2023-05-30T10:50:50.722Z,14.38
2023-05-30T10:53:21.220Z,14.49
2023-05-30T10:55:50.297Z,14.25
2023-05-30T10:58:43.303Z,14.88
2023-05-30T11:01:30.774Z,14.50
2023-05-30T11:04:05.010Z,14.33
2023-05-30T11:06:43.909Z,14.58
2023-05-30T11:09:18.892Z,14.54
2023-05-30T11:11:47.968Z,14.41
2023-05-30T11:14:16.332Z,14.27
2023-05-30T11:16:56.087Z,14.61
2023-05-30T11:19:29.108Z,14.41
2023-05-30T11:22:01.253Z,14.78
2023-05-30T11:24:30.646Z,14.71
2023-05-30T11:27:06.862Z,14.69
2023-05-30T11:29:58.283Z,14.42
2023-05-30T11:32:30.008Z,14.83
2023-05-30T11:35:04.550Z,14.86
2023-05-30T11:37:34.401Z,14.84
2023-05-30T11:40:01.696Z,14.67
2023-05-30T11:42:29.830Z,14.49
2023-05-30T11:44:57.271Z,14.86
2023-05-30T11:47:43.706Z,14.87
2023-05-30T11:50:11.044Z,14.76
2023-05-30T11:52:39.421Z,14.56
2023-05-30T11:55:06.522Z,14.81
2023-05-30T11:57:34.175Z,14.79
2023-05-30T12:00:01.325Z,15.08
2023-05-30T12:02:31.405Z,14.95
2023-05-30T12:05:03.092Z,14.88
2023-05-30T12:07:30.693Z,14.97
2023-05-30T12:09:57.486Z,15.01
2023-05-30T12:12:24.263Z,14.88
2023-05-30T12:14:54.322Z,14.61
2023-05-30T12:17:22.742Z,14.90
2023-05-30T12:19:57.932Z,14.96
2023-05-30T12:22:25.741Z,15.04
2023-05-30T12:24:53.297Z,15.13
2023-05-30T12:27:23.400Z,15.08
2023-05-30T12:29:50.408Z,15.35
2023-05-30T12:32:24.894Z,15.47
2023-05-30T12:34:54.298Z,15.10
2023-05-30T12:37:21.300Z,14.95
2023-05-30T12:39:57.256Z,15.09
2023-05-30T12:42:34.842Z,15.19
2023-05-30T12:45:06.889Z,15.23
2023-05-30T12:47:36.354Z,15.22
2023-05-30T12:50:03.581Z,15.27
2023-05-30T12:52:30.957Z,14.91
2023-05-30T12:54:58.205Z,14.84
2023-05-30T12:57:27.091Z,14.97
2023-05-30T12:59:55.894Z,15.36
2023-05-30T13:02:27.170Z,15.18
2023-05-30T13:04:55.370Z,15.15
2023-05-30T13:07:22.426Z,15.22
2023-05-30T13:09:49.217Z,15.39
2023-05-30T13:12:17.245Z,14.81
2023-05-30T13:14:45.846Z,15.06
2023-05-30T13:17:13.114Z,15.19
2023-05-30T13:19:40.179Z,15.01
2023-05-30T13:22:09.924Z,15.02
2023-05-30T13:24:37.701Z,15.12
2023-05-30T13:27:04.869Z,15.31
2023-05-30T13:29:31.749Z,15.14
2023-05-30T13:31:58.718Z,15.13
2023-05-30T13:34:25.628Z,15.13
2023-05-30T13:36:53.422Z,15.07
2023-05-30T13:39:20.303Z,15.27
2023-05-30T13:41:47.118Z,15.26
2023-05-30T13:44:14.068Z,15.26
2023-05-30T13:46:41.010Z,15.05
2023-05-30T13:49:08.864Z,15.16
2023-05-30T13:51:35.859Z,15.11
2023-05-30T13:54:04.371Z,15.06
2023-05-30T13:56:32.106Z,14.83
2023-05-30T13:58:59.783Z,14.83
2023-05-30T14:01:31.329Z,14.65
2023-05-30T14:03:58.727Z,14.65
2023-05-30T14:06:26.748Z,14.69
2023-05-30T14:08:53.941Z,14.58
2023-05-30T14:11:22.499Z,14.69
2023-05-30T14:13:50.202Z,14.53
2023-05-30T14:16:17.411Z,14.57
2023-05-30T14:18:47.890Z,14.67
2023-05-30T14:21:15.130Z,14.51
2023-05-30T14:23:42.183Z,14.65
2023-05-30T14:26:08.933Z,14.73
2023-05-30T14:28:36.376Z,14.64
2023-05-30T14:31:03.510Z,14.45
2023-05-30T14:33:30.494Z,14.53
2023-05-30T14:35:57.307Z,14.15
2023-05-30T14:38:24.380Z,14.28
2023-05-30T14:40:51.132Z,14.41
2023-05-30T14:43:17.836Z,14.55
2023-05-30T14:45:44.903Z,14.45
2023-05-30T14:48:13.159Z,14.31
2023-05-30T14:50:40.403Z,14.37
2023-05-30T14:53:07.500Z,14.43
2023-05-30T14:55:34.399Z,14.15
2023-05-30T14:58:01.299Z,14.13
2023-05-30T15:00:28.759Z,14.08
2023-05-30T15:02:55.855Z,14.05
2023-05-30T15:05:23.004Z,14.19
2023-05-30T15:07:50.361Z,14.27
2023-05-30T15:10:17.410Z,14.28
2023-05-30T15:12:46.277Z,14.05
2023-05-30T15:15:13.467Z,13.64
2023-05-30T15:17:40.772Z,13.86
2023-05-30T15:20:09.031Z,13.93
2023-05-30T15:22:36.725Z,13.87
2023-05-30T15:25:03.958Z,13.61
2023-05-30T15:27:30.870Z,13.82
2023-05-30T15:29:57.572Z,13.87
2023-05-30T15:32:24.472Z,13.93
2023-05-30T15:34:51.272Z,13.88
2023-05-30T15:37:18.012Z,13.93
2023-05-30T15:39:45.102Z,14.00
2023-05-30T15:42:11.858Z,13.89
2023-05-30T15:44:38.580Z,13.94
2023-05-30T15:47:06.772Z,13.87
2023-05-30T15:49:33.604Z,13.82
2023-05-30T15:52:00.424Z,13.64
2023-05-30T15:54:27.183Z,13.73
2023-05-30T15:56:54.357Z,13.75
2023-05-30T15:59:21.270Z,13.71
2023-05-30T16:01:48.363Z,13.73
2023-05-30T16:04:15.744Z,13.74
2023-05-30T16:06:42.566Z,13.60
2023-05-30T16:09:09.327Z,13.63
2023-05-30T16:11:36.105Z,13.80
2023-05-30T16:14:06.081Z,13.82
2023-05-30T16:16:33.357Z,13.90
2023-05-30T16:19:00.681Z,13.96
2023-05-30T16:21:27.515Z,13.80
2023-05-30T16:23:54.283Z,13.89
2023-05-30T16:26:22.779Z,13.91
2023-05-30T16:28:49.559Z,14.04
2023-05-30T16:31:17.681Z,13.88
2023-05-30T16:33:44.434Z,13.85
2023-05-30T16:36:12.891Z,13.90
2023-05-30T16:38:41.918Z,13.85
2023-05-30T16:41:13.216Z,13.82
2023-05-30T16:43:42.841Z,13.82
2023-05-30T16:46:10.734Z,13.87
2023-05-30T16:48:37.798Z,14.04
2023-05-30T16:51:05.015Z,14.20
2023-05-30T16:53:32.193Z,14.20
2023-05-30T16:55:59.102Z,14.40
2023-05-30T16:58:26.028Z,14.47
2023-05-30T17:00:52.943Z,14.34
2023-05-30T17:03:19.834Z,14.39
2023-05-30T17:05:46.704Z,14.53
2023-05-30T17:08:15.549Z,14.35
2023-05-30T17:10:43.238Z,14.38
2023-05-30T17:13:10.642Z,14.38
2023-05-30T17:15:37.737Z,14.50
2023-05-30T17:18:05.174Z,14.39
2023-05-30T17:20:32.354Z,14.52
2023-05-30T17:22:59.410Z,14.37
2023-05-30T17:25:29.333Z,14.37
2023-05-30T17:27:59.773Z,14.30
2023-05-30T17:30:27.641Z,14.25
2023-05-30T17:32:54.684Z,14.26
2023-05-30T17:35:21.459Z,14.58
2023-05-30T17:37:48.662Z,14.75
2023-05-30T17:40:15.680Z,15.01
2023-05-30T17:42:42.557Z,15.07
2023-05-30T17:45:14.090Z,15.31
2023-05-30T17:47:40.841Z,14.99
2023-05-30T17:50:09.074Z,14.82
2023-05-30T17:52:36.346Z,15.06
2023-05-30T17:55:03.342Z,15.12
2023-05-30T17:57:30.148Z,15.43
2023-05-30T17:59:57.084Z,15.46
2023-05-30T18:02:24.034Z,15.46
2023-05-30T18:04:51.018Z,15.60
2023-05-30T18:07:19.314Z,15.81
2023-05-30T18:09:46.068Z,16.41
2023-05-30T18:12:13.982Z,16.16
2023-05-30T18:14:40.696Z,16.21
2023-05-30T18:17:07.633Z,16.78
2023-05-30T18:19:34.400Z,16.90
2023-05-30T18:22:01.442Z,16.18
2023-05-30T18:24:28.331Z,15.85
2023-05-30T18:26:55.129Z,16.28
2023-05-30T18:29:21.917Z,15.93
2023-05-30T18:31:48.684Z,15.31
2023-05-30T18:34:15.527Z,15.28
2023-05-30T18:36:42.265Z,15.42
2023-05-30T18:39:10.366Z,15.48
2023-05-30T18:41:37.162Z,14.96
2023-05-30T18:44:05.489Z,14.68
2023-05-30T18:46:33.464Z,14.60
2023-05-30T18:49:00.342Z,14.67
2023-05-30T18:51:27.484Z,14.56
2023-05-30T18:53:55.083Z,14.24
2023-05-30T18:56:24.160Z,14.22
2023-05-30T18:58:52.875Z,14.05
2023-05-30T19:01:19.855Z,14.11
2023-05-30T19:03:46.709Z,14.02
2023-05-30T19:06:13.947Z,13.92
2023-05-30T19:08:41.075Z,13.80
2023-05-30T19:11:07.929Z,13.61
2023-05-30T19:13:34.664Z,13.48
2023-05-30T19:16:01.695Z,13.41
2023-05-30T19:18:28.746Z,13.36
2023-05-30T19:20:56.548Z,13.39
2023-05-30T19:23:23.490Z,13.24
2023-05-30T19:25:51.119Z,13.20
2023-05-30T19:28:17.989Z,13.23
2023-05-30T19:30:44.954Z,13.13
2023-05-30T19:33:13.033Z,13.15
2023-05-30T19:35:40.089Z,13.05
2023-05-30T19:38:06.870Z,13.04
2023-05-30T19:40:33.708Z,13.02
2023-05-30T19:43:00.538Z,12.90
2023-05-30T19:45:27.850Z,12.97
2023-05-30T19:47:55.142Z,12.96
2023-05-30T19:50:22.592Z,12.89
2023-05-30T19:52:49.442Z,13.00
2023-05-30T19:55:17.150Z,12.99
2023-05-30T19:57:44.333Z,13.07
2023-05-30T20:00:12.836Z,13.14
2023-05-30T20:02:41.196Z,13.02
2023-05-30T20:05:08.518Z,12.93
2023-05-30T20:07:37.039Z,13.01
2023-05-30T20:10:04.347Z,12.99
2023-05-30T20:12:31.256Z,12.90
2023-05-30T20:14:57.991Z,12.90
2023-05-30T20:17:25.092Z,12.80
2023-05-30T20:19:52.126Z,12.85
2023-05-30T20:22:19.705Z,12.83
2023-05-30T20:24:46.669Z,12.90
2023-05-30T20:27:15.219Z,12.89
2023-05-30T20:29:42.121Z,12.84
2023-05-30T20:32:09.516Z,12.76
2023-05-30T20:34:36.353Z,12.63
2023-05-30T20:37:03.097Z,12.63
2023-05-30T20:39:29.879Z,12.57
2023-05-30T20:41:56.637Z,12.48
2023-05-30T20:44:23.360Z,12.54
2023-05-30T20:46:50.335Z,12.46
2023-05-30T20:49:17.062Z,12.48
2023-05-30T20:51:43.846Z,12.48
2023-05-30T20:54:10.697Z,12.38
2023-05-30T20:56:37.402Z,12.38
2023-05-30T20:59:04.111Z,12.29
2023-05-30T21:01:31.097Z,12.26
2023-05-30T21:03:57.966Z,12.20
2023-05-30T21:06:24.749Z,12.14
2023-05-30T21:08:51.922Z,12.16
2023-05-30T21:11:18.733Z,12.08
2023-05-30T21:13:45.520Z,11.98
2023-05-30T21:16:13.026Z,12.03
2023-05-30T21:18:40.137Z,12.05
2023-05-30T21:21:06.902Z,11.96
2023-05-30T21:23:33.722Z,11.99
2023-05-30T21:26:00.494Z,11.89
2023-05-30T21:28:27.235Z,11.92
2023-05-30T21:30:53.988Z,11.72
2023-05-30T21:33:20.791Z,11.59
2023-05-30T21:35:47.526Z,11.57
2023-05-30T21:38:14.319Z,11.57
2023-05-30T21:40:43.662Z,11.50
2023-05-30T21:43:11.752Z,11.52
2023-05-30T21:45:44.541Z,11.63
2023-05-30T21:48:12.404Z,11.61
2023-05-30T21:50:39.571Z,11.47
2023-05-30T21:53:06.348Z,11.41
2023-05-30T21:55:33.122Z,11.33
2023-05-30T21:57:59.942Z,11.42
2023-05-30T22:00:29.402Z,11.40
2023-05-30T22:02:56.646Z,11.33
2023-05-30T22:05:23.444Z,11.25
2023-05-30T22:07:50.224Z,11.21
2023-05-30T22:10:17.057Z,11.24
2023-05-30T22:12:43.804Z,11.22
2023-05-30T22:15:11.318Z,11.24
2023-05-30T22:17:40.811Z,11.19
2023-05-30T22:20:09.385Z,11.16
2023-05-30T22:22:36.196Z,11.18
2023-05-30T22:25:03.794Z,11.09
2023-05-30T22:27:30.598Z,11.20
2023-05-30T22:29:57.432Z,11.21
2023-05-30T22:32:25.040Z,11.23
2023-05-30T22:34:51.764Z,11.20
2023-05-30T22:37:18.640Z,11.14
2023-05-30T22:39:45.647Z,11.12
2023-05-30T22:42:14.409Z,11.19
2023-05-30T22:44:41.815Z,11.11
2023-05-30T22:47:08.977Z,11.18
2023-05-30T22:49:35.739Z,11.08
2023-05-30T22:52:02.478Z,10.96
2023-05-30T22:54:29.228Z,10.93
2023-05-30T22:56:56.362Z,10.79
2023-05-30T22:59:23.338Z,10.81
2023-05-30T23:01:50.207Z,10.74
2023-05-30T23:04:17.139Z,10.65
2023-05-30T23:06:43.876Z,10.65
2023-05-30T23:09:10.650Z,10.63
2023-05-30T23:11:37.585Z,10.60
2023-05-30T23:14:04.374Z,10.69
2023-05-30T23:16:31.228Z,10.68
2023-05-30T23:18:58.057Z,10.72
2023-05-30T23:21:24.783Z,10.56
2023-05-30T23:23:51.583Z,10.46
2023-05-30T23:26:18.498Z,10.37
2023-05-30T23:28:45.350Z,10.35
2023-05-30T23:31:13.318Z,10.43
2023-05-30T23:33:40.161Z,10.42
2023-05-30T23:36:07.266Z,10.49
2023-05-30T23:38:34.004Z,10.54
2023-05-30T23:41:01.600Z,10.49
2023-05-30T23:43:29.238Z,10.49
2023-05-30T23:45:56.039Z,10.49
2023-05-30T23:48:22.751Z,10.56
2023-05-30T23:50:49.567Z,10.40
2023-05-30T23:53:16.312Z,10.39
2023-05-30T23:55:43.115Z,10.23
2023-05-30T23:58:09.838Z,10.22
